SELZG ESOW-ESOW
Flight info
| Callsign | SELZG |
|---|---|
| Flight time | 0h 43m |
| Altitude | 4000 |
| Route | ARS STAY1/0100 |
| Aircraft | C172/L-V/N |
Departure
| Time | 2026-05-04 12:39 |
|---|---|
| Airport | Stockholm Västerås Airport (ESOW) |
Arrival
| Time | 2026-05-04 13:22 |
|---|---|
| Airport | Stockholm Västerås Airport (ESOW) |
| Time | Latitude | Longitude | Altitude | Speed | Heading |
|---|---|---|---|---|---|
| 2026-05-04 12:23 | 59.59132 | 16.62702 | 32 ft | 0 kts | 166° |
| 2026-05-04 12:30 | 59.59089 | 16.62723 | 31 ft | 8 kts | 173° |
| 2026-05-04 12:31 | 59.59017 | 16.62745 | 28 ft | 14 kts | 168° |
| 2026-05-04 12:31 | 59.58944 | 16.62842 | 22 ft | 14 kts | 114° |
| 2026-05-04 12:31 | 59.58972 | 16.62964 | 21 ft | 12 kts | 7° |
| 2026-05-04 12:31 | 59.59052 | 16.62987 | 23 ft | 15 kts | 6° |
| 2026-05-04 12:32 | 59.59179 | 16.63019 | 25 ft | 19 kts | 6° |
| 2026-05-04 12:32 | 59.59454 | 16.63092 | 30 ft | 17 kts | 7° |
| 2026-05-04 12:32 | 59.59554 | 16.63184 | 28 ft | 16 kts | 45° |
| 2026-05-04 12:33 | 59.59612 | 16.63373 | 23 ft | 16 kts | 72° |
| 2026-05-04 12:33 | 59.59616 | 16.63453 | 22 ft | 0 kts | 94° |
| 2026-05-04 12:37 | 59.59615 | 16.63453 | 22 ft | 0 kts | 103° |
| 2026-05-04 12:37 | 59.59610 | 16.63526 | 22 ft | 13 kts | 102° |
| 2026-05-04 12:37 | 59.59569 | 16.63628 | 23 ft | 3 kts | 191° |
| 2026-05-04 12:37 | 59.59559 | 16.63624 | 23 ft | 0 kts | 189° |
| 2026-05-04 12:38 | 59.59556 | 16.63623 | 23 ft | 6 kts | 186° |
| 2026-05-04 12:38 | 59.59353 | 16.63536 | 20 ft | 52 kts | 187° |
| 2026-05-04 12:38 | 59.58905 | 16.63401 | 67 ft | 76 kts | 190° |
| 2026-05-04 12:38 | 59.58398 | 16.63367 | 226 ft | 79 kts | 189° |
| 2026-05-04 12:39 | 59.57838 | 16.63150 | 345 ft | 85 kts | 187° |
| 2026-05-04 12:39 | 59.57325 | 16.63023 | 729 ft | 68 kts | 197° |
| 2026-05-04 12:39 | 59.56840 | 16.62884 | 930 ft | 72 kts | 193° |
| 2026-05-04 12:39 | 59.56339 | 16.62757 | 1104 ft | 73 kts | 196° |
| 2026-05-04 12:40 | 59.55832 | 16.62686 | 1325 ft | 74 kts | 195° |
| 2026-05-04 12:40 | 59.55325 | 16.62622 | 1588 ft | 72 kts | 194° |
| 2026-05-04 12:40 | 59.54829 | 16.62561 | 1806 ft | 73 kts | 195° |
| 2026-05-04 12:40 | 59.54317 | 16.62504 | 1999 ft | 74 kts | 195° |
| 2026-05-04 12:41 | 59.53800 | 16.62455 | 2212 ft | 74 kts | 195° |
| 2026-05-04 12:41 | 59.53295 | 16.62765 | 2417 ft | 94 kts | 133° |
| 2026-05-04 12:41 | 59.53354 | 16.64077 | 2605 ft | 106 kts | 66° |
| 2026-05-04 12:41 | 59.53883 | 16.64915 | 2790 ft | 95 kts | 359° |
| 2026-05-04 12:42 | 59.54533 | 16.65175 | 2971 ft | 97 kts | 2° |
| 2026-05-04 12:42 | 59.55250 | 16.65460 | 3016 ft | 113 kts | 2° |
| 2026-05-04 12:42 | 59.56066 | 16.65727 | 3009 ft | 126 kts | 1° |
| 2026-05-04 12:42 | 59.56965 | 16.66012 | 3013 ft | 133 kts | 1° |
| 2026-05-04 12:43 | 59.57863 | 16.66303 | 3007 ft | 124 kts | 1° |
| 2026-05-04 12:43 | 59.58690 | 16.66587 | 3003 ft | 120 kts | 1° |
| 2026-05-04 12:43 | 59.59489 | 16.66829 | 3002 ft | 112 kts | 353° |
| 2026-05-04 12:43 | 59.60262 | 16.66804 | 2990 ft | 110 kts | 348° |
| 2026-05-04 12:44 | 59.61019 | 16.66736 | 2993 ft | 108 kts | 348° |
| 2026-05-04 12:44 | 59.61757 | 16.66674 | 2992 ft | 107 kts | 348° |
| 2026-05-04 12:44 | 59.62496 | 16.66623 | 2991 ft | 105 kts | 347° |
| 2026-05-04 12:44 | 59.63217 | 16.66574 | 2999 ft | 102 kts | 348° |
| 2026-05-04 12:45 | 59.63940 | 16.66528 | 2996 ft | 105 kts | 347° |
| 2026-05-04 12:45 | 59.64684 | 16.66474 | 2996 ft | 108 kts | 348° |
| 2026-05-04 12:45 | 59.65446 | 16.66408 | 3014 ft | 112 kts | 347° |
| 2026-05-04 12:45 | 59.66231 | 16.66328 | 3007 ft | 113 kts | 348° |
| 2026-05-04 12:46 | 59.67017 | 16.66276 | 3008 ft | 114 kts | 355° |
| 2026-05-04 12:46 | 59.67807 | 16.66620 | 3010 ft | 118 kts | 7° |
| 2026-05-04 12:46 | 59.68598 | 16.67058 | 3009 ft | 117 kts | 7° |
| 2026-05-04 12:46 | 59.69371 | 16.67486 | 3000 ft | 116 kts | 7° |
| 2026-05-04 12:47 | 59.70150 | 16.67912 | 3000 ft | 116 kts | 8° |
| 2026-05-04 12:47 | 59.70934 | 16.68321 | 3000 ft | 117 kts | 8° |
| 2026-05-04 12:47 | 59.71707 | 16.68772 | 2995 ft | 118 kts | 20° |
| 2026-05-04 12:47 | 59.72155 | 16.70080 | 2994 ft | 119 kts | 91° |
| 2026-05-04 12:48 | 59.71797 | 16.71366 | 2997 ft | 102 kts | 165° |
| 2026-05-04 12:48 | 59.71199 | 16.71201 | 3006 ft | 87 kts | 219° |
| 2026-05-04 12:48 | 59.70737 | 16.70406 | 3008 ft | 88 kts | 232° |
| 2026-05-04 12:48 | 59.70426 | 16.69385 | 3004 ft | 86 kts | 242° |
| 2026-05-04 12:49 | 59.70085 | 16.68433 | 3000 ft | 88 kts | 214° |
| 2026-05-04 12:49 | 59.69476 | 16.68135 | 3004 ft | 90 kts | 204° |
| 2026-05-04 12:49 | 59.68877 | 16.67814 | 3006 ft | 89 kts | 203° |
| 2026-05-04 12:49 | 59.68284 | 16.67481 | 3003 ft | 88 kts | 206° |
| 2026-05-04 12:50 | 59.67691 | 16.67150 | 3003 ft | 90 kts | 205° |
| 2026-05-04 12:50 | 59.67077 | 16.66815 | 3007 ft | 91 kts | 204° |
| 2026-05-04 12:50 | 59.66466 | 16.66475 | 3006 ft | 93 kts | 205° |
| 2026-05-04 12:50 | 59.65849 | 16.66065 | 3007 ft | 90 kts | 220° |
| 2026-05-04 12:51 | 59.65220 | 16.65855 | 2995 ft | 110 kts | 167° |
| 2026-05-04 12:51 | 59.64773 | 16.67194 | 2986 ft | 131 kts | 97° |
| 2026-05-04 12:51 | 59.65127 | 16.68742 | 2996 ft | 126 kts | 31° |
| 2026-05-04 12:51 | 59.65921 | 16.69010 | 3004 ft | 114 kts | 344° |
| 2026-05-04 12:52 | 59.66704 | 16.68839 | 3006 ft | 114 kts | 345° |
| 2026-05-04 12:52 | 59.67488 | 16.68684 | 3002 ft | 111 kts | 345° |
| 2026-05-04 12:52 | 59.68259 | 16.68546 | 2998 ft | 111 kts | 345° |
| 2026-05-04 12:52 | 59.69017 | 16.68401 | 2993 ft | 110 kts | 344° |
| 2026-05-04 12:53 | 59.69559 | 16.67635 | 2983 ft | 91 kts | 277° |
| 2026-05-04 12:53 | 59.69291 | 16.66697 | 2990 ft | 90 kts | 205° |
| 2026-05-04 12:53 | 59.68654 | 16.67073 | 2992 ft | 101 kts | 163° |
| 2026-05-04 12:53 | 59.68032 | 16.67707 | 3001 ft | 102 kts | 165° |
| 2026-05-04 12:54 | 59.67386 | 16.68042 | 3005 ft | 92 kts | 195° |
| 2026-05-04 12:54 | 59.66727 | 16.67977 | 3008 ft | 95 kts | 193° |
| 2026-05-04 12:54 | 59.66063 | 16.67920 | 3009 ft | 99 kts | 193° |
| 2026-05-04 12:54 | 59.65367 | 16.68024 | 2992 ft | 108 kts | 163° |
| 2026-05-04 12:55 | 59.64993 | 16.69357 | 2985 ft | 124 kts | 91° |
| 2026-05-04 12:55 | 59.65434 | 16.70733 | 2989 ft | 119 kts | 19° |
| 2026-05-04 12:55 | 59.66215 | 16.71127 | 2999 ft | 116 kts | 5° |
| 2026-05-04 12:55 | 59.67008 | 16.71469 | 3007 ft | 119 kts | 5° |
| 2026-05-04 12:56 | 59.67816 | 16.71895 | 3005 ft | 120 kts | 10° |
| 2026-05-04 12:56 | 59.68621 | 16.72365 | 3004 ft | 119 kts | 9° |
| 2026-05-04 12:56 | 59.69414 | 16.72645 | 3002 ft | 116 kts | 1° |
| 2026-05-04 12:56 | 59.70183 | 16.72639 | 2987 ft | 103 kts | 323° |
| 2026-05-04 12:57 | 59.70419 | 16.71609 | 2988 ft | 85 kts | 248° |
| 2026-05-04 12:57 | 59.69892 | 16.71145 | 2993 ft | 97 kts | 180° |
| 2026-05-04 12:57 | 59.69259 | 16.71120 | 3004 ft | 87 kts | 211° |
| 2026-05-04 12:57 | 59.68698 | 16.70629 | 3004 ft | 88 kts | 210° |
| 2026-05-04 12:58 | 59.68205 | 16.69983 | 3010 ft | 87 kts | 224° |
| 2026-05-04 12:58 | 59.67719 | 16.69206 | 3010 ft | 92 kts | 223° |
| 2026-05-04 12:58 | 59.67227 | 16.68392 | 3005 ft | 90 kts | 232° |
| 2026-05-04 12:58 | 59.66831 | 16.67456 | 3006 ft | 91 kts | 230° |
| 2026-05-04 12:59 | 59.66376 | 16.66558 | 3002 ft | 93 kts | 231° |
| 2026-05-04 12:59 | 59.65882 | 16.65760 | 2994 ft | 98 kts | 201° |
| 2026-05-04 12:59 | 59.65244 | 16.66371 | 2990 ft | 121 kts | 130° |
| 2026-05-04 12:59 | 59.65219 | 16.68041 | 2989 ft | 128 kts | 61° |
| 2026-05-04 13:00 | 59.65894 | 16.68930 | 2998 ft | 115 kts | 1° |
| 2026-05-04 13:00 | 59.66695 | 16.69155 | 3003 ft | 117 kts | 0° |
| 2026-05-04 13:00 | 59.67497 | 16.69396 | 3002 ft | 116 kts | 0° |
| 2026-05-04 13:00 | 59.68299 | 16.69607 | 2999 ft | 118 kts | 360° |
| 2026-05-04 13:01 | 59.69099 | 16.69679 | 2992 ft | 109 kts | 333° |
| 2026-05-04 13:01 | 59.69462 | 16.68695 | 2991 ft | 86 kts | 257° |
| 2026-05-04 13:01 | 59.69036 | 16.67960 | 2993 ft | 88 kts | 208° |
| 2026-05-04 13:01 | 59.68468 | 16.67493 | 3008 ft | 90 kts | 211° |
| 2026-05-04 13:02 | 59.67883 | 16.67026 | 3005 ft | 91 kts | 210° |
| 2026-05-04 13:02 | 59.67288 | 16.66628 | 3008 ft | 93 kts | 203° |
| 2026-05-04 13:02 | 59.66656 | 16.66308 | 3007 ft | 94 kts | 205° |
| 2026-05-04 13:02 | 59.66016 | 16.66000 | 2994 ft | 97 kts | 199° |
| 2026-05-04 13:03 | 59.65346 | 16.65927 | 2988 ft | 104 kts | 173° |
| 2026-05-04 13:03 | 59.64888 | 16.67124 | 2984 ft | 125 kts | 101° |
| 2026-05-04 13:03 | 59.65223 | 16.68609 | 2992 ft | 121 kts | 29° |
| 2026-05-04 13:03 | 59.65985 | 16.68904 | 3002 ft | 111 kts | 352° |
| 2026-05-04 13:04 | 59.66776 | 16.69034 | 3003 ft | 116 kts | 359° |
| 2026-05-04 13:04 | 59.67562 | 16.69321 | 3010 ft | 117 kts | 7° |
| 2026-05-04 13:04 | 59.68359 | 16.69776 | 3005 ft | 120 kts | 10° |
| 2026-05-04 13:04 | 59.69147 | 16.70239 | 2999 ft | 118 kts | 11° |
| 2026-05-04 13:05 | 59.69898 | 16.70222 | 2988 ft | 99 kts | 314° |
| 2026-05-04 13:05 | 59.70041 | 16.69163 | 2986 ft | 82 kts | 238° |
| 2026-05-04 13:05 | 59.69515 | 16.68695 | 2995 ft | 86 kts | 203° |
| 2026-05-04 13:05 | 59.68938 | 16.68375 | 3007 ft | 87 kts | 204° |
| 2026-05-04 13:06 | 59.68355 | 16.68046 | 3010 ft | 89 kts | 204° |
| 2026-05-04 13:06 | 59.67751 | 16.67714 | 3001 ft | 90 kts | 204° |
| 2026-05-04 13:06 | 59.67156 | 16.67411 | 3004 ft | 89 kts | 204° |
| 2026-05-04 13:06 | 59.66547 | 16.67114 | 3008 ft | 91 kts | 204° |
| 2026-05-04 13:07 | 59.65930 | 16.66797 | 3007 ft | 92 kts | 204° |
| 2026-05-04 13:07 | 59.65319 | 16.66492 | 3007 ft | 91 kts | 204° |
| 2026-05-04 13:07 | 59.64700 | 16.66185 | 3005 ft | 93 kts | 204° |
| 2026-05-04 13:07 | 59.64075 | 16.65871 | 3011 ft | 92 kts | 204° |
| 2026-05-04 13:08 | 59.63452 | 16.65553 | 3002 ft | 91 kts | 204° |
| 2026-05-04 13:08 | 59.62828 | 16.65231 | 3008 ft | 93 kts | 204° |
| 2026-05-04 13:08 | 59.62212 | 16.64882 | 3007 ft | 89 kts | 218° |
| 2026-05-04 13:08 | 59.61943 | 16.63887 | 2998 ft | 86 kts | 254° |
| 2026-05-04 13:09 | 59.61772 | 16.62775 | 2999 ft | 84 kts | 252° |
| 2026-05-04 13:09 | 59.61599 | 16.61671 | 3002 ft | 84 kts | 253° |
| 2026-05-04 13:09 | 59.61475 | 16.60565 | 3005 ft | 86 kts | 272° |
| 2026-05-04 13:09 | 59.61620 | 16.59402 | 3008 ft | 89 kts | 277° |
| 2026-05-04 13:10 | 59.61763 | 16.58192 | 3010 ft | 91 kts | 277° |
| 2026-05-04 13:10 | 59.61905 | 16.56962 | 3010 ft | 92 kts | 277° |
| 2026-05-04 13:10 | 59.62231 | 16.55887 | 3008 ft | 105 kts | 322° |
| 2026-05-04 13:10 | 59.62996 | 16.56081 | 3005 ft | 127 kts | 33° |
| 2026-05-04 13:11 | 59.63518 | 16.57522 | 3006 ft | 131 kts | 58° |
| 2026-05-04 13:11 | 59.63983 | 16.59062 | 3010 ft | 130 kts | 58° |
| 2026-05-04 13:11 | 59.64438 | 16.60569 | 3003 ft | 128 kts | 57° |
| 2026-05-04 13:11 | 59.64892 | 16.62091 | 3001 ft | 128 kts | 58° |
| 2026-05-04 13:12 | 59.65350 | 16.63592 | 3000 ft | 128 kts | 57° |
| 2026-05-04 13:12 | 59.65807 | 16.65111 | 2967 ft | 129 kts | 58° |
| 2026-05-04 13:12 | 59.66261 | 16.66633 | 2851 ft | 130 kts | 58° |
| 2026-05-04 13:12 | 59.66730 | 16.68180 | 2712 ft | 130 kts | 53° |
| 2026-05-04 13:13 | 59.67377 | 16.69372 | 2586 ft | 128 kts | 40° |
| 2026-05-04 13:13 | 59.68032 | 16.70590 | 2461 ft | 128 kts | 41° |
| 2026-05-04 13:13 | 59.68672 | 16.71792 | 2334 ft | 128 kts | 40° |
| 2026-05-04 13:13 | 59.69103 | 16.72634 | 2242 ft | 129 kts | 42° |
| 2026-05-04 13:14 | 59.69939 | 16.74327 | 2095 ft | 129 kts | 42° |
| 2026-05-04 13:14 | 59.70350 | 16.75155 | 2091 ft | 125 kts | 42° |
| 2026-05-04 13:14 | 59.70969 | 16.76389 | 2098 ft | 126 kts | 42° |
| 2026-05-04 13:14 | 59.71581 | 16.77611 | 2090 ft | 126 kts | 42° |
| 2026-05-04 13:15 | 59.72575 | 16.78119 | 2081 ft | 109 kts | 321° |
| 2026-05-04 13:15 | 59.72860 | 16.77390 | 2084 ft | 96 kts | 276° |
| 2026-05-04 13:15 | 59.72599 | 16.76285 | 2084 ft | 95 kts | 224° |
| 2026-05-04 13:15 | 59.72147 | 16.75396 | 2088 ft | 90 kts | 234° |
| 2026-05-04 13:16 | 59.71827 | 16.74365 | 2093 ft | 86 kts | 253° |
| 2026-05-04 13:16 | 59.71720 | 16.73197 | 2088 ft | 86 kts | 258° |
| 2026-05-04 13:16 | 59.71613 | 16.72050 | 2090 ft | 84 kts | 258° |
| 2026-05-04 13:16 | 59.71504 | 16.70905 | 2088 ft | 84 kts | 258° |
| 2026-05-04 13:17 | 59.71396 | 16.69784 | 2091 ft | 83 kts | 258° |
| 2026-05-04 13:17 | 59.71171 | 16.68740 | 2082 ft | 87 kts | 220° |
| 2026-05-04 13:17 | 59.70586 | 16.68393 | 2094 ft | 88 kts | 206° |
| 2026-05-04 13:17 | 59.70003 | 16.68050 | 2081 ft | 84 kts | 204° |
| 2026-05-04 13:18 | 59.69437 | 16.67752 | 1977 ft | 87 kts | 202° |
| 2026-05-04 13:18 | 59.68846 | 16.67470 | 1861 ft | 87 kts | 201° |
| 2026-05-04 13:18 | 59.68245 | 16.67196 | 1740 ft | 90 kts | 200° |
| 2026-05-04 13:18 | 59.67647 | 16.66926 | 1619 ft | 85 kts | 201° |
| 2026-05-04 13:19 | 59.67070 | 16.66680 | 1503 ft | 85 kts | 200° |
| 2026-05-04 13:19 | 59.66505 | 16.66449 | 1387 ft | 80 kts | 202° |
| 2026-05-04 13:19 | 59.65981 | 16.66235 | 1285 ft | 76 kts | 205° |
| 2026-05-04 13:19 | 59.65417 | 16.66003 | 1170 ft | 92 kts | 203° |
| 2026-05-04 13:20 | 59.64781 | 16.65746 | 1052 ft | 95 kts | 200° |
| 2026-05-04 13:20 | 59.64138 | 16.65483 | 895 ft | 87 kts | 203° |
| 2026-05-04 13:20 | 59.63577 | 16.65256 | 774 ft | 82 kts | 202° |
| 2026-05-04 13:20 | 59.63025 | 16.65021 | 666 ft | 82 kts | 198° |
| 2026-05-04 13:21 | 59.62449 | 16.64796 | 546 ft | 88 kts | 195° |
| 2026-05-04 13:21 | 59.61866 | 16.64558 | 428 ft | 81 kts | 197° |
| 2026-05-04 13:21 | 59.61320 | 16.64342 | 316 ft | 79 kts | 198° |
| 2026-05-04 13:21 | 59.60779 | 16.64119 | 207 ft | 80 kts | 198° |
| 2026-05-04 13:22 | 59.60252 | 16.63905 | 108 ft | 69 kts | 199° |
| 2026-05-04 13:22 | 59.59848 | 16.63747 | 27 ft | 48 kts | 203° |
| 2026-05-04 13:22 | 59.59594 | 16.63637 | 24 ft | 29 kts | 194° |
| 2026-05-04 13:22 | 59.59402 | 16.63562 | 20 ft | 31 kts | 192° |
| 2026-05-04 13:23 | 59.59200 | 16.63479 | 21 ft | 25 kts | 189° |
| 2026-05-04 13:23 | 59.59114 | 16.63382 | 20 ft | 9 kts | 276° |
| 2026-05-04 13:23 | 59.59120 | 16.63287 | 21 ft | 6 kts | 282° |
| 2026-05-04 13:23 | 59.59128 | 16.63191 | 22 ft | 8 kts | 275° |
| 2026-05-04 13:24 | 59.59136 | 16.63089 | 24 ft | 8 kts | 272° |
| 2026-05-04 13:24 | 59.59109 | 16.63002 | 24 ft | 12 kts | 188° |
| 2026-05-04 13:24 | 59.58992 | 16.62972 | 22 ft | 19 kts | 186° |
| 2026-05-04 13:25 | 59.58916 | 16.62808 | 21 ft | 7 kts | 104° |
| 2026-05-04 13:25 | 59.58917 | 16.62847 | 21 ft | 0 kts | 89° |